Airfield :
LOGIN :

Register | Disclaimer

   EN    FR    IT 

 










Legend :    VFR   Marginal VFR   IFR   Intensive IFR   Very Intensive IFR
Visi :
Ceiling :
>= 8 km
>= 3000ft
5 to 8 km
1000 to 3000 ft
1500m to 5 km
500 to 1000 ft
800 to 1500m
200 to 500 ft
< 800m
< 200 ft
Symbols :   Thunderstorms  Fog  Heavy snow  Heavy precipitations  Wind > 20 kt
SIGMETs :     Misc.  Thunderstorms  Icing  Turbulence  Mountain Waves  Volcanic Ashes






- Airport Elevation : 1947 ft
- IATA code : OBF


EDMO - Oberpfaffenhofen

CURRENT METAR :
  • 170320Z AUTO 22003KT 0550 R22/1000U // BKN001/// OVC004/// 02/02 Q1020

EXPIRED METARs :
  • 170250Z AUTO 22003KT 0250 R22/0250N // VV001 03/02 Q1020
  • 170220Z AUTO 23003KT 0300 R22/0325N // VV001 03/03 Q1020
  • 170150Z AUTO 21003KT 0500 R22/0650D // VV002 01/01 Q1020
  • 170120Z AUTO VRB02KT 0450 R22/0900D // SCT001/// BKN003/// 02/02 Q1020
  • 170050Z AUTO 21002KT 1800 // NCD 02/02 Q1020

Expired Forecast.



MET'MAP, your aeronautical weather chart ! - Copyright ORBIFLY December 2007 - Disclaimer

ORBIFLY MET'MAP TEAM :

Programming & Development : Alexandra Zaïnal
Concept & original design : Baudouin d'Aumeries
Assistance for programming : Marc-Olivier Méhu
Technical & hardware support : Manuel Goepfert

Contact : metmap@orbifly.com




SOURCES & CREDITS :

   NOAA